createdAt,value
2022-08-04T00:04:33.856Z,28.50
2022-08-04T00:09:42.286Z,28.50
2022-08-04T00:14:50.032Z,28.50
2022-08-04T00:19:57.243Z,28.50
2022-08-04T00:25:03.752Z,28.30
2022-08-04T00:30:08.588Z,28.20
2022-08-04T00:35:14.118Z,27.90
2022-08-04T00:40:29.683Z,27.60
2022-08-04T00:46:17.323Z,27.70
2022-08-04T00:51:32.515Z,27.80
2022-08-04T00:56:55.355Z,27.90
2022-08-04T01:02:02.098Z,28.00
2022-08-04T01:07:33.273Z,28.00
2022-08-04T01:13:02.639Z,28.00
2022-08-04T01:18:21.989Z,27.80
2022-08-04T01:23:52.228Z,27.30
2022-08-04T01:29:05.024Z,27.50
2022-08-04T01:34:14.415Z,27.40
2022-08-04T01:39:34.973Z,27.10
2022-08-04T01:44:41.618Z,27.20
2022-08-04T01:49:49.439Z,27.10
2022-08-04T01:54:52.764Z,27.10
2022-08-04T02:00:00.350Z,26.70
2022-08-04T02:05:03.349Z,26.90
2022-08-04T02:10:08.935Z,27.00
2022-08-04T02:15:20.364Z,26.90
2022-08-04T02:20:25.713Z,26.70
2022-08-04T02:25:30.628Z,26.70
2022-08-04T02:30:42.128Z,26.50
2022-08-04T02:35:50.460Z,26.20
2022-08-04T02:40:56.503Z,26.40
2022-08-04T02:46:04.429Z,26.60
2022-08-04T02:51:24.649Z,26.50
2022-08-04T02:56:31.761Z,26.50
2022-08-04T03:01:36.797Z,26.40
2022-08-04T03:07:15.635Z,26.50
2022-08-04T03:12:59.102Z,26.30
2022-08-04T03:18:27.434Z,26.30
2022-08-04T03:24:04.061Z,26.20
2022-08-04T03:29:44.147Z,25.80
2022-08-04T03:35:13.492Z,25.40
2022-08-04T03:40:48.001Z,25.60
2022-08-04T03:46:11.339Z,25.90
2022-08-04T03:51:46.328Z,25.60
2022-08-04T03:57:26.830Z,25.60
2022-08-04T04:03:00.232Z,25.00
2022-08-04T04:08:36.923Z,25.40
2022-08-04T04:14:07.470Z,25.40
2022-08-04T04:19:29.121Z,24.60
2022-08-04T04:25:01.302Z,24.50
2022-08-04T04:30:08.131Z,24.70
2022-08-04T04:35:22.499Z,24.60
2022-08-04T04:40:40.452Z,24.60
2022-08-04T04:45:52.114Z,24.80
2022-08-04T04:51:06.941Z,24.90
2022-08-04T04:56:18.297Z,24.90
2022-08-04T05:01:56.612Z,24.60
2022-08-04T05:07:22.652Z,24.80
2022-08-04T05:14:31.727Z,24.90
2022-08-04T05:18:07.683Z,25.10
2022-08-04T05:23:14.969Z,25.40
2022-08-04T05:28:22.964Z,25.50
2022-08-04T05:33:33.497Z,25.70
2022-08-04T05:38:39.238Z,25.80
2022-08-04T05:43:46.203Z,26.00
2022-08-04T05:48:50.167Z,26.20
2022-08-04T05:53:55.738Z,26.30
2022-08-04T05:59:01.497Z,26.50
2022-08-04T06:04:11.112Z,26.90
2022-08-04T06:09:14.834Z,27.00
2022-08-04T06:14:22.403Z,27.10
2022-08-04T06:20:03.109Z,27.20
2022-08-04T06:24:52.405Z,27.30
2022-08-04T06:29:58.970Z,27.60
2022-08-04T06:35:04.167Z,27.80
2022-08-04T06:40:29.821Z,27.90
2022-08-04T06:45:41.186Z,28.00
2022-08-04T06:51:31.899Z,28.20
2022-08-04T06:56:10.363Z,28.20
2022-08-04T07:01:15.972Z,28.40
2022-08-04T07:06:19.960Z,28.40
2022-08-04T07:11:23.039Z,28.40
2022-08-04T07:16:30.854Z,28.70
2022-08-04T07:21:36.687Z,28.80
2022-08-04T07:26:39.943Z,29.00
2022-08-04T07:31:45.396Z,29.10
2022-08-04T07:36:55.023Z,29.30
2022-08-04T07:42:02.150Z,29.30
2022-08-04T07:47:09.731Z,29.40
2022-08-04T07:52:14.989Z,29.50
2022-08-04T07:57:40.349Z,29.60
2022-08-04T08:02:53.302Z,30.10
2022-08-04T08:07:58.277Z,30.40
2022-08-04T08:13:01.582Z,30.70
2022-08-04T08:18:06.065Z,30.80
2022-08-04T08:23:09.999Z,31.10
2022-08-04T08:28:13.095Z,31.20
2022-08-04T08:33:18.900Z,31.40
2022-08-04T08:38:29.772Z,31.60
2022-08-04T08:44:06.034Z,31.80
2022-08-04T08:50:00.871Z,32.10
2022-08-04T08:55:25.660Z,32.50
2022-08-04T09:00:37.332Z,32.50
2022-08-04T09:06:19.999Z,32.30
2022-08-04T09:11:27.155Z,32.40
2022-08-04T09:16:38.203Z,32.90
2022-08-04T09:22:18.487Z,33.30
2022-08-04T09:27:36.393Z,33.50
2022-08-04T09:32:48.233Z,33.60
2022-08-04T09:38:08.664Z,33.50
2022-08-04T09:43:58.805Z,33.20
2022-08-04T09:49:03.101Z,33.30
2022-08-04T09:54:30.247Z,33.50
2022-08-04T09:59:44.417Z,33.70
2022-08-04T10:04:50.265Z,33.80
2022-08-04T10:10:13.109Z,34.20
2022-08-04T10:15:21.516Z,34.50
2022-08-04T10:20:45.395Z,34.40
2022-08-04T10:26:07.553Z,34.70
2022-08-04T10:31:20.159Z,34.30
2022-08-04T10:36:28.573Z,34.40
2022-08-04T10:41:40.206Z,34.60
2022-08-04T10:46:51.150Z,34.60
2022-08-04T10:52:09.714Z,34.30
2022-08-04T10:57:16.791Z,34.10
2022-08-04T11:02:38.950Z,34.30
2022-08-04T11:07:46.154Z,34.40
2022-08-04T11:12:51.982Z,34.70
2022-08-04T11:18:00.038Z,34.70
2022-08-04T11:23:08.028Z,34.80
2022-08-04T11:28:18.863Z,34.80
2022-08-04T11:33:36.613Z,34.80
2022-08-04T11:38:51.946Z,34.90
2022-08-04T11:44:01.608Z,35.00
2022-08-04T11:49:12.128Z,35.20
2022-08-04T11:54:15.953Z,35.40
2022-08-04T11:59:19.833Z,35.50
2022-08-04T12:04:37.159Z,35.50
2022-08-04T12:09:47.444Z,35.80
2022-08-04T12:14:59.522Z,35.90
2022-08-04T12:20:31.922Z,35.60
2022-08-04T12:25:44.918Z,35.70
2022-08-04T12:31:01.001Z,35.90
2022-08-04T12:36:21.325Z,36.20
2022-08-04T12:41:35.439Z,36.40
2022-08-04T12:46:40.236Z,36.20
2022-08-04T12:52:08.017Z,36.30
2022-08-04T12:57:12.209Z,36.40
2022-08-04T13:02:20.001Z,36.50
2022-08-04T13:07:26.197Z,36.60
2022-08-04T13:12:32.476Z,36.70
2022-08-04T13:17:49.069Z,36.80
2022-08-04T13:22:58.448Z,36.70
2022-08-04T13:28:02.259Z,36.60
2022-08-04T13:33:07.612Z,36.70
2022-08-04T13:38:13.410Z,36.90
2022-08-04T13:44:15.494Z,37.00
2022-08-04T13:49:08.934Z,36.90
2022-08-04T13:54:16.465Z,36.70
2022-08-04T13:59:23.891Z,36.80
2022-08-04T14:04:31.535Z,37.10
2022-08-04T14:10:02.533Z,37.10
2022-08-04T14:16:01.721Z,37.00
2022-08-04T14:21:06.495Z,37.10
2022-08-04T14:26:35.433Z,37.30
2022-08-04T14:31:54.457Z,37.20
2022-08-04T14:37:17.681Z,37.20
2022-08-04T14:42:42.001Z,37.30
2022-08-04T14:47:52.955Z,37.50
2022-08-04T14:53:04.635Z,37.60
2022-08-04T14:58:35.156Z,37.50
2022-08-04T15:03:50.782Z,37.40
2022-08-04T15:08:57.654Z,37.60
2022-08-04T15:59:02.806Z,38.10
2022-08-04T16:04:25.927Z,38.10
2022-08-04T16:09:45.318Z,38.20
2022-08-04T16:14:50.789Z,38.00
2022-08-04T16:20:10.137Z,38.10
2022-08-04T16:25:13.144Z,38.20
2022-08-04T16:30:23.862Z,38.10
2022-08-04T16:35:29.044Z,38.30
2022-08-04T16:40:36.892Z,38.50
2022-08-04T16:45:51.143Z,38.40
2022-08-04T16:50:57.233Z,38.60
2022-08-04T16:56:01.509Z,38.60
2022-08-04T17:01:11.620Z,38.60
2022-08-04T17:06:28.541Z,38.70
2022-08-04T17:11:36.052Z,38.60
2022-08-04T17:16:44.934Z,38.50
2022-08-04T17:21:52.639Z,38.70
2022-08-04T17:26:56.125Z,39.00
2022-08-04T17:32:01.490Z,38.90
2022-08-04T17:37:52.121Z,38.80
2022-08-04T17:42:31.083Z,38.60
2022-08-04T17:47:51.781Z,39.00
2022-08-04T17:53:11.746Z,39.20
2022-08-04T17:58:21.106Z,39.10
2022-08-04T18:08:57.683Z,38.90
2022-08-04T18:14:10.743Z,38.50
2022-08-04T18:19:18.865Z,38.10
2022-08-04T18:24:28.513Z,37.80
2022-08-04T18:29:38.991Z,37.50
2022-08-04T18:34:55.083Z,37.30
2022-08-04T18:40:09.626Z,37.00
2022-08-04T18:45:13.987Z,36.80
2022-08-04T18:51:00.443Z,36.60
2022-08-04T18:55:57.159Z,36.50
2022-08-04T19:01:01.983Z,36.20
2022-08-04T19:06:07.442Z,36.00
2022-08-04T19:11:37.371Z,35.80
2022-08-04T19:16:34.877Z,35.70
2022-08-04T19:22:01.686Z,35.50
2022-08-04T19:27:06.374Z,35.30
2022-08-04T19:32:14.966Z,35.10
2022-08-04T19:37:58.368Z,35.00
2022-08-04T19:42:45.276Z,34.80
2022-08-04T19:48:16.992Z,34.60
2022-08-04T19:53:20.115Z,34.40
2022-08-04T19:58:36.076Z,34.30
2022-08-04T20:04:09.674Z,34.30
2022-08-04T20:09:04.018Z,34.10
2022-08-04T20:14:32.340Z,34.00
2022-08-04T20:19:36.645Z,33.30
2022-08-04T20:24:48.016Z,32.90
2022-08-04T20:29:57.729Z,33.20
2022-08-04T20:35:01.442Z,33.20
2022-08-04T20:40:08.040Z,33.20
2022-08-04T20:45:16.448Z,33.20
2022-08-04T20:50:29.814Z,33.00
2022-08-04T20:55:55.179Z,32.80
2022-08-04T21:00:58.855Z,32.60
2022-08-04T21:06:01.822Z,32.70
2022-08-04T21:11:09.020Z,32.70
2022-08-04T21:16:12.145Z,32.60
2022-08-04T21:21:35.718Z,32.60
2022-08-04T21:26:40.105Z,32.50
2022-08-04T21:31:51.043Z,32.50
2022-08-04T21:36:56.331Z,32.20
2022-08-04T21:47:24.586Z,32.20
2022-08-04T21:52:29.426Z,32.00
2022-08-04T21:57:33.665Z,32.00
2022-08-04T22:02:43.327Z,32.00
2022-08-04T22:07:50.312Z,31.90
2022-08-04T22:12:55.985Z,31.80
2022-08-04T22:18:04.306Z,31.80
2022-08-04T22:23:16.911Z,31.70
2022-08-04T22:28:25.449Z,31.10
2022-08-04T22:33:54.941Z,30.40
2022-08-04T22:39:04.397Z,30.80
2022-08-04T22:44:15.450Z,30.90
2022-08-04T22:49:23.865Z,31.00
2022-08-04T22:54:34.570Z,30.90
2022-08-04T22:59:43.042Z,30.90
2022-08-04T23:04:47.505Z,30.60
2022-08-04T23:09:53.390Z,30.80
2022-08-04T23:14:59.806Z,30.80
2022-08-04T23:20:02.709Z,30.50
2022-08-04T23:25:06.557Z,30.60
2022-08-04T23:30:24.797Z,30.50
2022-08-04T23:35:33.405Z,30.50
2022-08-04T23:40:50.286Z,30.50
2022-08-04T23:46:07.072Z,30.20
2022-08-04T23:51:26.930Z,30.30
2022-08-04T23:56:31.962Z,30.40
